createdAt,value
2023-01-25T00:00:00.801Z,3.42
2023-01-25T00:02:30.690Z,3.42
2023-01-25T00:05:00.434Z,3.47
2023-01-25T00:07:30.154Z,3.61
2023-01-25T00:09:59.824Z,3.64
2023-01-25T00:12:32.265Z,3.53
2023-01-25T00:15:01.910Z,3.63
2023-01-25T00:17:31.597Z,3.59
2023-01-25T00:20:01.237Z,3.47
2023-01-25T00:22:30.919Z,3.43
2023-01-25T00:25:00.566Z,3.41
2023-01-25T00:27:32.832Z,3.46
2023-01-25T00:30:02.516Z,3.36
2023-01-25T00:32:50.807Z,3.45
2023-01-25T00:35:20.535Z,3.45
2023-01-25T00:37:52.502Z,3.43
2023-01-25T00:40:22.341Z,3.50
2023-01-25T00:42:54.812Z,3.33
2023-01-25T00:45:24.450Z,3.55
2023-01-25T00:47:57.326Z,3.42
2023-01-25T00:50:27.705Z,3.47
2023-01-25T00:52:57.389Z,3.55
2023-01-25T00:55:27.092Z,3.58
2023-01-25T00:57:59.648Z,3.62
2023-01-25T01:00:29.393Z,3.65
2023-01-25T01:03:00.382Z,3.57
2023-01-25T01:05:30.351Z,3.63
2023-01-25T01:07:59.971Z,3.63
2023-01-25T01:10:29.638Z,3.66
2023-01-25T01:13:01.892Z,3.34
2023-01-25T01:15:31.508Z,3.53
2023-01-25T01:18:01.191Z,3.60
2023-01-25T01:20:31.052Z,3.52
2023-01-25T01:23:00.681Z,3.43
2023-01-25T01:25:30.281Z,3.51
2023-01-25T01:28:02.470Z,3.30
2023-01-25T01:30:32.140Z,3.20
2023-01-25T01:33:01.798Z,3.30
2023-01-25T01:35:32.586Z,3.39
2023-01-25T01:38:02.420Z,3.52
2023-01-25T01:40:32.088Z,3.55
2023-01-25T01:43:06.785Z,3.57
2023-01-25T01:45:56.568Z,3.55
2023-01-25T01:48:37.382Z,3.56
2023-01-25T01:51:19.556Z,3.58
2023-01-25T01:53:53.696Z,3.64
2023-01-25T01:56:37.210Z,3.72
2023-01-25T01:59:10.777Z,3.69
2023-01-25T02:01:40.845Z,3.64
2023-01-25T02:04:12.078Z,3.60
2023-01-25T02:06:48.233Z,3.71
2023-01-25T02:09:22.179Z,3.72
2023-01-25T02:11:53.643Z,3.62
2023-01-25T02:14:26.061Z,3.37
2023-01-25T02:16:55.736Z,3.34
2023-01-25T02:19:48.017Z,3.29
2023-01-25T02:22:23.033Z,3.36
2023-01-25T02:25:06.115Z,3.41
2023-01-25T02:27:40.840Z,3.37
2023-01-25T02:30:12.883Z,3.39
2023-01-25T02:32:42.535Z,3.39
2023-01-25T02:35:22.124Z,3.46
2023-01-25T02:37:53.252Z,3.54
2023-01-25T02:40:25.495Z,3.54
2023-01-25T02:42:55.160Z,3.44
2023-01-25T02:45:30.249Z,3.43
2023-01-25T02:48:00.377Z,3.47
2023-01-25T02:50:30.206Z,3.47
2023-01-25T02:52:59.904Z,3.60
2023-01-25T02:55:32.156Z,3.63
2023-01-25T02:58:01.832Z,3.67
2023-01-25T03:00:31.735Z,3.46
2023-01-25T03:03:01.429Z,3.49
2023-01-25T03:05:31.152Z,3.51
2023-01-25T03:08:01.419Z,3.66
2023-01-25T03:10:33.774Z,3.60
2023-01-25T03:13:03.957Z,3.56
2023-01-25T03:15:33.563Z,3.51
2023-01-25T03:18:04.483Z,3.68
2023-01-25T03:20:34.282Z,3.71
2023-01-25T03:23:03.979Z,3.75
2023-01-25T03:25:37.264Z,3.52
2023-01-25T03:28:15.180Z,3.77
2023-01-25T03:30:44.956Z,3.76
2023-01-25T03:33:14.735Z,3.66
2023-01-25T03:35:44.902Z,3.75
2023-01-25T03:38:14.722Z,3.73
2023-01-25T03:40:46.983Z,3.74
2023-01-25T03:43:16.764Z,3.74
2023-01-25T03:45:55.741Z,3.63
2023-01-25T03:48:27.327Z,3.69
2023-01-25T03:50:59.336Z,3.38
2023-01-25T03:53:32.892Z,3.31
2023-01-25T03:56:19.887Z,3.60
2023-01-25T03:58:58.844Z,3.65
2023-01-25T04:01:29.589Z,3.60
2023-01-25T04:03:59.265Z,3.49
2023-01-25T04:06:29.079Z,3.39
2023-01-25T04:08:59.091Z,3.36
2023-01-25T04:11:34.449Z,3.35
2023-01-25T04:14:04.205Z,3.32
2023-01-25T04:16:41.508Z,3.27
2023-01-25T04:19:32.462Z,3.43
2023-01-25T04:22:03.951Z,3.36
2023-01-25T04:24:39.925Z,3.49
2023-01-25T04:27:13.229Z,3.48
2023-01-25T04:29:56.547Z,3.45
2023-01-25T04:32:28.611Z,3.51
2023-01-25T04:34:59.253Z,3.46
2023-01-25T04:37:31.190Z,3.46
2023-01-25T04:40:02.398Z,3.53
2023-01-25T04:42:39.223Z,3.51
2023-01-25T04:45:10.440Z,3.42
2023-01-25T04:47:41.368Z,3.52
2023-01-25T04:50:13.627Z,3.44
2023-01-25T04:52:43.263Z,3.52
2023-01-25T04:55:13.099Z,3.35
2023-01-25T04:57:48.422Z,3.12
2023-01-25T05:00:19.181Z,2.91
2023-01-25T05:02:49.546Z,3.06
2023-01-25T05:05:19.510Z,3.20
2023-01-25T05:07:50.602Z,3.21
2023-01-25T05:10:20.390Z,3.16
2023-01-25T05:13:24.724Z,3.05
2023-01-25T05:16:02.433Z,3.06
2023-01-25T05:18:47.084Z,3.40
2023-01-25T05:21:33.662Z,3.41
2023-01-25T05:24:03.485Z,3.48
2023-01-25T05:26:47.623Z,3.52
2023-01-25T05:29:19.871Z,3.59
2023-01-25T05:31:55.912Z,3.63
2023-01-25T05:34:26.126Z,3.57
2023-01-25T05:36:56.379Z,3.50
2023-01-25T05:39:26.514Z,3.56
2023-01-25T05:41:57.114Z,3.63
2023-01-25T05:44:29.592Z,3.51
2023-01-25T05:46:59.281Z,3.46
2023-01-25T05:49:29.365Z,3.47
2023-01-25T05:51:59.310Z,3.50
2023-01-25T05:54:29.551Z,3.54
2023-01-25T05:57:05.417Z,3.40
2023-01-25T05:59:39.407Z,3.27
2023-01-25T06:02:11.933Z,3.10
2023-01-25T06:04:42.269Z,2.97
2023-01-25T06:07:12.974Z,3.08
2023-01-25T06:09:43.533Z,2.99
2023-01-25T06:12:13.433Z,2.92
2023-01-25T06:14:47.371Z,3.06
2023-01-25T06:17:17.218Z,3.18
2023-01-25T06:20:15.263Z,3.00
2023-01-25T06:23:01.225Z,3.22
2023-01-25T06:25:30.869Z,3.19
2023-01-25T06:28:00.694Z,3.29
2023-01-25T06:30:32.991Z,3.32
2023-01-25T06:33:03.511Z,3.15
2023-01-25T06:35:34.307Z,2.95
2023-01-25T06:38:04.379Z,3.19
2023-01-25T06:40:34.028Z,3.19
2023-01-25T06:43:09.549Z,2.89
2023-01-25T06:45:41.780Z,3.11
2023-01-25T06:48:12.890Z,3.08
2023-01-25T06:50:43.255Z,2.81
2023-01-25T06:53:12.887Z,2.85
2023-01-25T06:55:42.504Z,2.95
2023-01-25T06:58:12.184Z,3.01
2023-01-25T07:00:44.405Z,3.03
2023-01-25T07:03:14.080Z,2.95
2023-01-25T07:05:43.729Z,3.10
2023-01-25T07:08:13.572Z,2.82
2023-01-25T07:10:43.254Z,2.83
2023-01-25T07:13:12.866Z,2.72
2023-01-25T07:15:45.111Z,2.88
2023-01-25T07:18:16.562Z,3.02
2023-01-25T07:20:46.491Z,3.04
2023-01-25T07:23:16.229Z,2.66
2023-01-25T07:25:49.054Z,2.77
2023-01-25T07:28:19.864Z,2.85
2023-01-25T07:30:52.262Z,2.94
2023-01-25T07:33:21.920Z,2.96
2023-01-25T07:35:52.106Z,3.02
2023-01-25T07:38:21.722Z,3.08
2023-01-25T07:40:54.832Z,3.15
2023-01-25T07:43:24.584Z,3.20
2023-01-25T07:46:03.577Z,3.11
2023-01-25T07:48:33.463Z,2.89
2023-01-25T07:51:22.728Z,2.81
2023-01-25T07:53:54.197Z,2.95
2023-01-25T07:56:25.861Z,2.92
2023-01-25T07:58:56.844Z,3.11
2023-01-25T08:01:32.217Z,3.44
2023-01-25T08:04:02.852Z,3.54
2023-01-25T08:06:35.904Z,3.19
2023-01-25T08:09:09.158Z,3.15
2023-01-25T08:11:38.819Z,3.19
2023-01-25T08:14:09.176Z,3.29
2023-01-25T08:16:41.473Z,3.36
2023-01-25T08:19:12.973Z,3.40
2023-01-25T08:21:42.732Z,3.31
2023-01-25T08:24:13.043Z,3.30
2023-01-25T08:26:43.663Z,3.43
2023-01-25T08:29:14.605Z,3.26
2023-01-25T08:31:46.921Z,3.45
2023-01-25T08:34:17.164Z,3.40
2023-01-25T08:36:46.838Z,3.34
2023-01-25T08:39:17.826Z,3.21
2023-01-25T08:41:47.494Z,3.22
2023-01-25T08:44:17.112Z,3.22
2023-01-25T08:46:49.569Z,3.12
2023-01-25T08:49:19.426Z,3.27
2023-01-25T08:51:50.373Z,3.31
2023-01-25T08:54:20.021Z,3.26
2023-01-25T08:56:49.940Z,3.25
2023-01-25T08:59:19.606Z,3.19
2023-01-25T09:01:52.031Z,3.38
2023-01-25T09:04:21.684Z,3.12
2023-01-25T09:06:51.351Z,2.89
2023-01-25T09:09:22.520Z,3.18
2023-01-25T09:11:55.090Z,3.20
2023-01-25T09:14:25.078Z,3.16
2023-01-25T09:16:57.289Z,3.16
2023-01-25T09:19:26.915Z,2.77
2023-01-25T09:21:56.525Z,3.22
2023-01-25T09:24:26.216Z,3.30
2023-01-25T09:26:59.787Z,3.31
2023-01-25T09:29:30.043Z,3.03
2023-01-25T09:32:02.627Z,3.00
2023-01-25T09:34:34.825Z,2.74
2023-01-25T09:37:04.445Z,2.72
2023-01-25T09:39:34.099Z,2.78
2023-01-25T09:42:32.833Z,2.77
2023-01-25T09:45:14.796Z,2.66
2023-01-25T09:47:53.752Z,2.75
2023-01-25T09:50:34.839Z,2.99
2023-01-25T09:53:19.193Z,2.98
2023-01-25T09:55:54.072Z,2.80
2023-01-25T09:58:29.108Z,2.82
2023-01-25T10:01:14.028Z,2.84
2023-01-25T10:03:53.105Z,2.80
2023-01-25T10:06:26.359Z,2.69
2023-01-25T10:09:03.369Z,2.97
2023-01-25T10:11:34.671Z,3.10
2023-01-25T10:14:04.486Z,3.08
2023-01-25T10:16:41.802Z,3.29
2023-01-25T10:19:23.173Z,3.23
2023-01-25T10:21:59.393Z,3.24
2023-01-25T10:24:40.224Z,2.85
2023-01-25T10:27:22.017Z,3.15
2023-01-25T10:29:53.555Z,3.17
2023-01-25T10:32:31.964Z,3.20
2023-01-25T10:35:29.221Z,3.30
2023-01-25T10:38:07.858Z,2.91
2023-01-25T10:40:45.729Z,3.27
2023-01-25T10:43:19.815Z,3.08
2023-01-25T10:45:50.737Z,3.07
2023-01-25T10:48:23.979Z,3.00
2023-01-25T10:50:57.940Z,3.16
2023-01-25T10:53:36.100Z,3.13
2023-01-25T10:56:21.262Z,3.15
2023-01-25T10:58:54.447Z,2.93
2023-01-25T11:01:30.829Z,2.76
2023-01-25T11:04:02.350Z,2.55
2023-01-25T11:06:37.656Z,2.66
2023-01-25T11:09:33.976Z,2.78
2023-01-25T11:12:05.323Z,2.47
2023-01-25T11:14:36.228Z,2.40
2023-01-25T11:17:08.399Z,2.37
2023-01-25T11:19:40.010Z,2.56
2023-01-25T11:22:28.790Z,2.39
2023-01-25T11:24:58.427Z,2.49
2023-01-25T11:27:29.418Z,2.38
2023-01-25T11:30:14.414Z,2.55
2023-01-25T11:32:44.465Z,2.60
2023-01-25T11:35:18.727Z,2.33
2023-01-25T11:38:08.908Z,2.68
2023-01-25T11:40:46.200Z,2.91
2023-01-25T11:43:28.277Z,2.93
2023-01-25T11:46:20.831Z,2.92
2023-01-25T11:49:16.842Z,2.86
2023-01-25T11:51:55.339Z,3.42
2023-01-25T11:54:43.302Z,3.35
2023-01-25T11:57:31.526Z,2.97
2023-01-25T12:00:13.284Z,2.93
2023-01-25T12:03:07.442Z,2.55
2023-01-25T12:05:51.033Z,2.77
2023-01-25T12:08:44.937Z,2.78
2023-01-25T12:11:26.614Z,2.94
2023-01-25T12:14:06.670Z,2.85
2023-01-25T12:16:50.438Z,2.80
2023-01-25T12:19:36.074Z,2.65
2023-01-25T12:22:17.317Z,2.67
2023-01-25T12:24:58.680Z,2.81
2023-01-25T12:27:46.117Z,2.78
2023-01-25T12:30:23.511Z,2.67
2023-01-25T12:33:08.959Z,2.72
2023-01-25T12:35:48.188Z,2.78
2023-01-25T12:38:22.822Z,2.77
2023-01-25T12:40:57.204Z,2.67
2023-01-25T12:43:34.783Z,2.68
2023-01-25T12:46:11.964Z,2.46
2023-01-25T12:48:47.633Z,2.77
2023-01-25T12:51:20.321Z,2.77
2023-01-25T12:53:51.949Z,2.69
2023-01-25T12:56:31.687Z,2.78
2023-01-25T12:59:14.798Z,2.65
2023-01-25T13:01:52.073Z,2.73
2023-01-25T13:04:33.985Z,2.88
2023-01-25T13:07:13.792Z,2.78
2023-01-25T13:09:54.791Z,2.74
2023-01-25T13:12:24.684Z,2.52
2023-01-25T13:14:56.992Z,2.52
2023-01-25T13:17:38.305Z,2.59
2023-01-25T13:20:51.432Z,2.66
2023-01-25T13:23:36.737Z,2.53
2023-01-25T13:26:36.510Z,2.63
2023-01-25T13:29:06.391Z,2.32
2023-01-25T13:31:53.612Z,2.51
2023-01-25T13:34:53.264Z,2.39
2023-01-25T13:37:25.354Z,2.39
2023-01-25T13:39:56.442Z,2.53
2023-01-25T13:42:28.118Z,2.65
2023-01-25T13:44:59.864Z,2.55
2023-01-25T13:47:37.899Z,2.52
2023-01-25T13:50:21.736Z,2.51
2023-01-25T13:53:01.733Z,2.48
2023-01-25T13:55:32.660Z,2.42
2023-01-25T13:58:12.957Z,2.26
2023-01-25T14:00:51.040Z,2.19
2023-01-25T14:03:27.464Z,2.25
2023-01-25T14:06:00.164Z,2.01
2023-01-25T14:08:30.163Z,2.15
2023-01-25T14:11:00.853Z,2.18
2023-01-25T14:13:30.497Z,2.46
2023-01-25T14:16:01.893Z,2.47
2023-01-25T14:18:35.781Z,2.68
2023-01-25T14:21:18.381Z,2.54
2023-01-25T14:23:48.757Z,2.67
2023-01-25T14:26:22.095Z,2.66
2023-01-25T14:29:01.150Z,2.64
2023-01-25T14:31:37.145Z,2.78
2023-01-25T14:34:18.153Z,2.77
2023-01-25T14:36:48.314Z,2.79
2023-01-25T14:39:29.647Z,2.82
2023-01-25T14:42:01.492Z,2.64
2023-01-25T14:44:32.458Z,2.53
2023-01-25T14:47:24.735Z,2.55
2023-01-25T14:49:56.977Z,2.34
2023-01-25T14:52:30.171Z,2.38
2023-01-25T14:55:02.920Z,2.35
2023-01-25T14:57:37.102Z,2.23
2023-01-25T15:00:09.648Z,2.35
2023-01-25T15:02:43.633Z,2.23
2023-01-25T15:05:24.677Z,2.17
2023-01-25T15:07:55.802Z,2.10
2023-01-25T15:10:27.450Z,2.08
2023-01-25T15:13:14.174Z,2.15
2023-01-25T15:15:58.040Z,2.09
2023-01-25T15:18:47.468Z,2.09
2023-01-25T15:21:20.853Z,2.10
2023-01-25T15:23:52.465Z,2.17
2023-01-25T15:26:24.164Z,2.02
2023-01-25T15:28:55.905Z,2.08
2023-01-25T15:31:29.154Z,2.06
2023-01-25T15:34:00.152Z,1.87
2023-01-25T15:36:33.753Z,2.15
2023-01-25T15:39:03.427Z,1.92
2023-01-25T15:41:33.057Z,2.14
2023-01-25T15:44:02.834Z,2.11
2023-01-25T15:46:34.551Z,2.10
2023-01-25T15:49:04.331Z,2.30
2023-01-25T15:51:37.190Z,2.49
2023-01-25T15:54:07.554Z,2.47
2023-01-25T15:56:39.850Z,2.58
2023-01-25T15:59:11.150Z,2.34
2023-01-25T16:01:40.753Z,2.28
2023-01-25T16:04:13.549Z,2.36
2023-01-25T16:06:47.935Z,2.41
2023-01-25T16:09:20.422Z,2.64
2023-01-25T16:11:51.342Z,2.47
2023-01-25T16:14:21.335Z,2.34
2023-01-25T16:16:53.450Z,2.30
2023-01-25T16:19:24.820Z,2.31
2023-01-25T16:21:57.244Z,2.39
2023-01-25T16:24:27.164Z,2.22
2023-01-25T16:26:59.329Z,2.21
2023-01-25T16:29:30.249Z,2.19
2023-01-25T16:32:00.460Z,2.33
2023-01-25T16:34:30.330Z,2.30
2023-01-25T16:37:03.181Z,2.31
2023-01-25T16:39:34.005Z,2.28
2023-01-25T16:42:03.671Z,2.22
2023-01-25T16:44:33.291Z,2.10
2023-01-25T16:47:03.793Z,1.82
2023-01-25T16:49:34.757Z,1.74
2023-01-25T16:52:07.497Z,1.70
2023-01-25T16:54:37.101Z,1.64
2023-01-25T16:57:19.912Z,1.56
2023-01-25T16:59:50.344Z,1.77
2023-01-25T17:02:20.008Z,1.80
2023-01-25T17:04:49.970Z,1.73
2023-01-25T17:07:22.349Z,1.53
2023-01-25T17:09:51.970Z,1.51
2023-01-25T17:12:21.924Z,1.56
2023-01-25T17:14:51.568Z,1.60
2023-01-25T17:17:24.073Z,1.64
2023-01-25T17:19:54.271Z,1.62
2023-01-25T17:22:26.998Z,1.59
2023-01-25T17:24:57.619Z,1.54
2023-01-25T17:27:27.258Z,1.47
2023-01-25T17:29:57.165Z,1.44
2023-01-25T17:32:27.056Z,1.60
2023-01-25T17:34:59.220Z,1.64
2023-01-25T17:37:31.649Z,1.77
2023-01-25T17:40:01.311Z,1.62
2023-01-25T17:42:30.993Z,1.49
2023-01-25T17:45:00.992Z,1.58
2023-01-25T17:47:31.681Z,1.59
2023-01-25T17:50:01.345Z,1.69
2023-01-25T17:52:33.546Z,1.31
2023-01-25T17:55:03.830Z,1.40
2023-01-25T17:57:33.434Z,1.25
2023-01-25T18:00:03.064Z,1.56
2023-01-25T18:02:45.472Z,1.68
2023-01-25T18:05:15.740Z,1.80
2023-01-25T18:07:48.238Z,1.79
2023-01-25T18:10:19.001Z,1.95
2023-01-25T18:13:03.588Z,1.89
2023-01-25T18:15:34.452Z,1.80
2023-01-25T18:18:04.272Z,1.70
2023-01-25T18:20:34.490Z,1.34
2023-01-25T18:23:07.196Z,1.41
2023-01-25T18:25:38.928Z,1.37
2023-01-25T18:28:08.888Z,1.52
2023-01-25T18:30:42.086Z,1.61
2023-01-25T18:33:12.200Z,1.72
2023-01-25T18:35:43.678Z,1.73
2023-01-25T18:38:16.838Z,1.71
2023-01-25T18:40:46.995Z,1.61
2023-01-25T18:43:17.105Z,1.52
2023-01-25T18:45:47.213Z,1.38
2023-01-25T18:48:19.795Z,1.14
2023-01-25T18:50:49.733Z,1.39
2023-01-25T18:53:21.921Z,1.37
2023-01-25T18:56:00.939Z,1.30
2023-01-25T18:58:32.292Z,1.08
2023-01-25T19:01:07.487Z,1.27
2023-01-25T19:03:37.782Z,1.27
2023-01-25T19:06:08.127Z,1.23
2023-01-25T19:08:41.549Z,1.12
2023-01-25T19:11:13.101Z,1.82
2023-01-25T19:13:44.242Z,1.26
2023-01-25T19:16:16.367Z,1.21
2023-01-25T19:18:49.824Z,1.07
2023-01-25T19:21:21.194Z,1.17
2023-01-25T19:23:54.834Z,1.11
2023-01-25T19:26:26.792Z,1.08
2023-01-25T19:28:57.075Z,1.26
2023-01-25T19:31:32.118Z,1.34
2023-01-25T19:34:03.050Z,1.34
2023-01-25T19:36:36.066Z,1.30
2023-01-25T19:39:10.502Z,1.28
2023-01-25T19:41:41.440Z,1.17
2023-01-25T19:44:13.845Z,1.40
2023-01-25T19:46:44.276Z,1.40
2023-01-25T19:49:15.520Z,1.23
2023-01-25T19:51:52.968Z,1.42
2023-01-25T19:54:25.899Z,1.43
2023-01-25T19:56:56.243Z,1.38
2023-01-25T19:59:27.626Z,1.34
2023-01-25T20:01:57.451Z,1.19
2023-01-25T20:04:27.467Z,1.18
2023-01-25T20:06:57.136Z,1.18
2023-01-25T20:09:29.471Z,1.14
2023-01-25T20:12:00.741Z,1.21
2023-01-25T20:14:30.409Z,1.17
2023-01-25T20:17:00.092Z,0.93
2023-01-25T20:19:30.369Z,1.02
2023-01-25T20:22:00.565Z,0.77
2023-01-25T20:24:33.020Z,0.65
2023-01-25T20:27:04.363Z,0.52
2023-01-25T20:29:34.146Z,0.41
2023-01-25T20:32:05.715Z,0.51
2023-01-25T20:34:35.525Z,0.89
2023-01-25T20:37:07.615Z,0.86
2023-01-25T20:39:39.899Z,1.14
2023-01-25T20:42:09.663Z,1.13
2023-01-25T20:44:39.347Z,1.17
2023-01-25T20:47:09.051Z,1.28
2023-01-25T20:49:39.044Z,1.34
2023-01-25T20:52:12.974Z,0.95
2023-01-25T20:54:45.507Z,0.92
2023-01-25T20:57:15.516Z,0.82
2023-01-25T20:59:45.719Z,1.13
2023-01-25T21:02:15.851Z,0.69
2023-01-25T21:04:45.820Z,0.77
2023-01-25T21:07:15.883Z,0.81
2023-01-25T21:09:48.138Z,0.69
2023-01-25T21:12:17.828Z,0.68
2023-01-25T21:14:47.461Z,0.97
2023-01-25T21:17:17.151Z,1.03
2023-01-25T21:19:46.786Z,1.04
2023-01-25T21:22:16.483Z,1.12
2023-01-25T21:24:48.728Z,0.92
2023-01-25T21:27:18.423Z,0.95
2023-01-25T21:29:48.083Z,0.84
2023-01-25T21:32:17.737Z,1.13
2023-01-25T21:34:48.584Z,1.05
2023-01-25T21:37:18.250Z,1.19
2023-01-25T21:39:50.671Z,1.36
2023-01-25T21:42:20.391Z,1.10
2023-01-25T21:45:02.517Z,1.28
2023-01-25T21:47:32.485Z,1.13
2023-01-25T21:50:14.611Z,0.85
2023-01-25T21:52:44.255Z,0.94
2023-01-25T21:55:16.751Z,0.99
2023-01-25T21:57:49.067Z,0.89
2023-01-25T22:00:20.588Z,0.77
2023-01-25T22:02:52.993Z,0.78
2023-01-25T22:05:22.723Z,0.77
2023-01-25T22:07:52.388Z,0.71
2023-01-25T22:10:26.341Z,0.66
2023-01-25T22:12:56.009Z,0.63
2023-01-25T22:15:25.686Z,0.61
2023-01-25T22:17:55.361Z,0.55
2023-01-25T22:20:24.994Z,0.46
2023-01-25T22:22:54.666Z,0.53
2023-01-25T22:25:26.892Z,0.47
2023-01-25T22:28:02.220Z,0.49
2023-01-25T22:30:31.870Z,0.51
2023-01-25T22:33:01.537Z,0.55
2023-01-25T22:35:31.158Z,0.64
2023-01-25T22:38:01.306Z,0.41
2023-01-25T22:40:33.537Z,0.59
2023-01-25T22:43:03.189Z,0.69
2023-01-25T22:45:32.832Z,0.65
2023-01-25T22:48:02.443Z,0.74
2023-01-25T22:50:32.126Z,0.83
2023-01-25T22:53:01.739Z,0.62
2023-01-25T22:55:34.988Z,0.30
2023-01-25T22:58:04.686Z,0.57
2023-01-25T23:00:34.349Z,0.63
2023-01-25T23:03:03.992Z,0.60
2023-01-25T23:05:33.889Z,0.68
2023-01-25T23:08:03.521Z,0.78
2023-01-25T23:10:35.728Z,0.70
2023-01-25T23:13:05.361Z,0.63
2023-01-25T23:15:35.123Z,0.77
2023-01-25T23:18:17.283Z,0.62
2023-01-25T23:20:47.169Z,0.70
2023-01-25T23:23:16.801Z,0.75
2023-01-25T23:25:49.389Z,0.66
2023-01-25T23:28:19.002Z,0.60
2023-01-25T23:30:48.750Z,0.48
2023-01-25T23:33:18.366Z,0.43
2023-01-25T23:35:47.983Z,0.40
2023-01-25T23:38:17.662Z,0.49
2023-01-25T23:40:49.873Z,0.47
2023-01-25T23:43:19.477Z,0.55
2023-01-25T23:45:49.095Z,0.69
2023-01-25T23:48:18.685Z,0.71
2023-01-25T23:50:48.332Z,0.46
2023-01-25T23:53:17.994Z,0.64
2023-01-25T23:55:56.972Z,0.70
2023-01-25T23:58:27.645Z,0.74
